createdAt,value
2017-08-03T00:01:04.801Z,9.77
2017-08-03T00:03:32.954Z,10.18
2017-08-03T00:06:01.111Z,9.68
2017-08-03T00:08:29.282Z,9.82
2017-08-03T00:10:57.426Z,9.30
2017-08-03T00:13:25.567Z,9.60
2017-08-03T00:15:53.771Z,12.20
2017-08-03T00:18:21.937Z,9.55
2017-08-03T00:20:50.625Z,9.43
2017-08-03T00:23:18.803Z,8.65
2017-08-03T00:25:46.975Z,8.80
2017-08-03T00:28:15.122Z,8.80
2017-08-03T00:30:43.944Z,9.02
2017-08-03T00:33:12.086Z,8.75
2017-08-03T00:35:40.233Z,9.15
2017-08-03T00:38:08.419Z,9.90
2017-08-03T00:40:36.585Z,10.18
2017-08-03T00:43:04.730Z,9.60
2017-08-03T00:45:33.702Z,9.95
2017-08-03T00:48:02.641Z,9.55
2017-08-03T00:50:30.794Z,11.12
2017-08-03T00:52:59.749Z,9.90
2017-08-03T00:55:27.917Z,9.90
2017-08-03T00:57:56.083Z,9.73
2017-08-03T01:00:24.290Z,10.60
2017-08-03T01:02:52.438Z,10.20
2017-08-03T01:05:20.585Z,11.63
2017-08-03T01:07:48.858Z,10.60
2017-08-03T01:10:17.006Z,10.63
2017-08-03T01:12:45.914Z,9.73
2017-08-03T01:15:14.110Z,10.30
2017-08-03T01:17:42.285Z,11.20
2017-08-03T01:20:10.442Z,13.32
2017-08-03T01:22:38.641Z,11.10
2017-08-03T01:25:06.789Z,11.12
2017-08-03T01:27:34.956Z,13.32
2017-08-03T01:30:03.164Z,10.55
2017-08-03T01:32:31.349Z,10.70
2017-08-03T01:34:59.512Z,11.55
2017-08-03T01:37:27.710Z,10.77
2017-08-03T01:39:55.869Z,10.45
2017-08-03T01:42:24.018Z,11.00
2017-08-03T01:44:52.216Z,11.30
2017-08-03T01:47:20.361Z,12.35
2017-08-03T01:49:48.514Z,11.48
2017-08-03T01:52:17.874Z,12.00
2017-08-03T01:54:46.025Z,12.25
2017-08-03T01:57:14.175Z,11.73
2017-08-03T01:59:43.113Z,11.63
2017-08-03T02:02:11.266Z,17.67
2017-08-03T02:04:39.441Z,11.90
2017-08-03T02:07:07.638Z,9.85
2017-08-03T02:09:35.802Z,10.45
2017-08-03T02:12:03.964Z,10.70
2017-08-03T02:14:32.162Z,9.80
2017-08-03T02:17:00.312Z,10.20
2017-08-03T02:19:28.458Z,10.65
2017-08-03T02:21:57.109Z,11.70
2017-08-03T02:24:25.260Z,10.77
2017-08-03T02:26:53.438Z,15.90
2017-08-03T02:29:21.618Z,13.27
2017-08-03T02:31:49.790Z,12.98
2017-08-03T02:34:17.939Z,11.88
2017-08-03T02:36:46.121Z,12.85
2017-08-03T02:39:14.293Z,14.10
2017-08-03T02:41:42.447Z,12.40
2017-08-03T02:44:10.627Z,12.30
2017-08-03T02:46:38.776Z,14.10
2017-08-03T02:49:08.472Z,13.00
2017-08-03T02:51:36.654Z,11.80
2017-08-03T02:54:04.806Z,13.00
2017-08-03T02:56:32.984Z,13.15
2017-08-03T02:59:01.520Z,15.55
2017-08-03T03:01:29.690Z,12.52
2017-08-03T03:03:57.857Z,13.77
2017-08-03T03:06:26.926Z,13.68
2017-08-03T03:08:55.074Z,13.93
2017-08-03T03:11:23.240Z,13.57
2017-08-03T03:13:51.443Z,13.48
2017-08-03T03:16:19.590Z,14.10
2017-08-03T03:18:47.760Z,13.32
2017-08-03T03:21:15.937Z,13.32
2017-08-03T03:23:44.100Z,13.82
2017-08-03T03:26:12.269Z,13.80
2017-08-03T03:28:40.901Z,13.23
2017-08-03T03:31:09.075Z,13.60
2017-08-03T03:33:37.241Z,14.85
2017-08-03T03:36:05.449Z,14.10
2017-08-03T03:38:34.383Z,14.20
2017-08-03T03:41:02.534Z,13.27
2017-08-03T03:43:30.736Z,15.75
2017-08-03T03:45:58.883Z,14.73
2017-08-03T03:48:27.053Z,15.52
2017-08-03T03:50:55.490Z,14.95
2017-08-03T03:53:23.645Z,17.35
2017-08-03T03:55:51.799Z,14.23
2017-08-03T03:58:19.996Z,15.93
2017-08-03T04:00:48.154Z,13.77
2017-08-03T04:03:16.326Z,15.77
2017-08-03T04:05:44.542Z,16.87
2017-08-03T04:08:13.463Z,14.30
2017-08-03T04:10:41.643Z,13.35
2017-08-03T04:13:09.840Z,15.80
2017-08-03T04:15:38.010Z,16.17
2017-08-03T04:18:06.154Z,16.00
2017-08-03T04:20:34.339Z,15.13
2017-08-03T04:23:02.489Z,15.07
2017-08-03T04:25:31.401Z,15.52
2017-08-03T04:27:59.595Z,15.25
2017-08-03T04:30:27.762Z,17.00
2017-08-03T04:32:55.932Z,15.13
2017-08-03T04:35:24.146Z,16.73
2017-08-03T04:37:52.320Z,17.30
2017-08-03T04:40:20.475Z,16.75
2017-08-03T04:42:48.669Z,21.75
2017-08-03T04:45:16.817Z,17.95
2017-08-03T04:47:44.970Z,18.15
2017-08-03T04:50:13.151Z,26.60
2017-08-03T04:52:41.302Z,17.02
2017-08-03T04:55:10.214Z,18.60
2017-08-03T04:57:38.419Z,17.58
2017-08-03T05:00:06.578Z,17.30
2017-08-03T05:02:34.729Z,16.95
2017-08-03T05:05:02.939Z,14.95
2017-08-03T05:07:31.109Z,15.90
2017-08-03T05:09:59.286Z,15.38
2017-08-03T05:12:27.475Z,16.58
2017-08-03T05:14:55.641Z,15.90
2017-08-03T05:17:23.816Z,15.32
2017-08-03T05:19:52.022Z,15.43
2017-08-03T05:22:20.177Z,18.80
2017-08-03T05:24:48.321Z,16.42
2017-08-03T05:27:16.509Z,15.60
2017-08-03T05:29:44.680Z,14.50
2017-08-03T05:32:12.850Z,16.52
2017-08-03T05:34:41.055Z,15.45
2017-08-03T05:37:09.229Z,15.98
2017-08-03T05:39:37.405Z,15.20
2017-08-03T05:42:05.613Z,14.57
2017-08-03T05:44:34.533Z,15.82
2017-08-03T05:47:02.704Z,14.50
2017-08-03T05:49:30.878Z,13.32
2017-08-03T05:51:59.052Z,13.75
2017-08-03T05:54:27.198Z,14.77
2017-08-03T05:56:56.169Z,15.30
2017-08-03T05:59:24.336Z,15.95
2017-08-03T06:01:52.484Z,17.35
2017-08-03T06:04:20.658Z,16.20
2017-08-03T06:06:48.825Z,15.57
2017-08-03T06:09:16.980Z,16.10
2017-08-03T06:11:45.576Z,17.23
2017-08-03T06:14:13.735Z,16.58
2017-08-03T06:16:41.913Z,17.25
2017-08-03T06:19:10.097Z,16.25
2017-08-03T06:21:38.254Z,17.02
2017-08-03T06:24:06.419Z,17.12
2017-08-03T06:26:35.357Z,16.33
2017-08-03T06:29:03.521Z,18.20
2017-08-03T06:31:31.666Z,16.23
2017-08-03T06:34:00.630Z,16.67
2017-08-03T06:36:28.777Z,17.00
2017-08-03T06:38:56.949Z,17.10
2017-08-03T06:41:25.559Z,17.65
2017-08-03T06:43:53.725Z,17.98
2017-08-03T06:46:21.892Z,18.87
2017-08-03T06:48:50.073Z,20.48
2017-08-03T06:51:18.218Z,17.92
2017-08-03T06:53:47.304Z,17.42
2017-08-03T06:56:15.487Z,17.15
2017-08-03T06:58:43.641Z,16.95
2017-08-03T07:01:12.577Z,16.62
2017-08-03T07:03:40.763Z,17.30
2017-08-03T07:06:08.998Z,17.52
2017-08-03T07:08:37.909Z,16.40
2017-08-03T07:11:06.103Z,16.90
2017-08-03T07:13:34.279Z,19.55
2017-08-03T07:16:02.437Z,16.65
2017-08-03T07:18:30.640Z,16.08
2017-08-03T07:20:58.795Z,15.48
2017-08-03T07:23:26.965Z,16.73
2017-08-03T07:25:55.146Z,14.93
2017-08-03T07:28:23.300Z,14.63
2017-08-03T07:30:51.468Z,13.85
2017-08-03T07:33:19.648Z,15.20
2017-08-03T07:35:47.802Z,14.85
2017-08-03T07:38:15.968Z,13.45
2017-08-03T07:40:44.929Z,13.23
2017-08-03T07:43:13.108Z,14.43
2017-08-03T07:45:41.276Z,16.40
2017-08-03T07:48:09.475Z,13.55
2017-08-03T07:50:38.414Z,14.10
2017-08-03T07:53:06.589Z,13.65
2017-08-03T07:55:34.788Z,13.88
2017-08-03T07:58:02.966Z,12.20
2017-08-03T08:00:31.136Z,13.35
2017-08-03T08:02:59.316Z,12.70
2017-08-03T08:05:27.466Z,11.38
2017-08-03T08:07:55.626Z,11.18
2017-08-03T08:10:23.828Z,12.32
2017-08-03T08:12:52.002Z,11.05
2017-08-03T08:15:20.165Z,10.82
2017-08-03T08:17:48.357Z,11.27
2017-08-03T08:20:16.511Z,10.30
2017-08-03T08:22:44.684Z,12.48
2017-08-03T08:25:12.881Z,8.95
2017-08-03T08:27:41.023Z,9.27
2017-08-03T08:30:09.169Z,9.27
2017-08-03T08:32:38.125Z,10.18
2017-08-03T08:35:06.272Z,9.23
2017-08-03T08:37:34.440Z,8.75
2017-08-03T08:40:02.629Z,9.13
2017-08-03T08:42:30.793Z,7.62
2017-08-03T08:44:58.934Z,8.50
2017-08-03T08:47:27.887Z,10.27
2017-08-03T08:49:56.030Z,7.68
2017-08-03T08:52:24.180Z,7.28
2017-08-03T08:54:52.365Z,6.50
2017-08-03T08:57:20.537Z,7.18
2017-08-03T08:59:48.686Z,6.40
2017-08-03T09:02:17.651Z,6.60
2017-08-03T09:04:45.812Z,6.20
2017-08-03T09:07:13.976Z,6.93
2017-08-03T09:09:42.164Z,5.40
2017-08-03T09:12:10.329Z,6.83
2017-08-03T09:14:38.497Z,6.73
2017-08-03T09:17:06.685Z,6.70
2017-08-03T09:19:34.852Z,6.53
2017-08-03T09:22:03.026Z,7.75
2017-08-03T09:24:31.225Z,6.45
2017-08-03T09:26:59.380Z,7.00
2017-08-03T09:29:27.542Z,8.40
2017-08-03T09:31:55.733Z,7.00
2017-08-03T09:34:23.901Z,6.57
2017-08-03T09:36:52.072Z,5.83
2017-08-03T09:39:20.273Z,6.17
2017-08-03T09:41:48.439Z,5.33
2017-08-03T09:44:16.585Z,6.80
2017-08-03T09:46:44.783Z,5.67
2017-08-03T09:49:12.947Z,5.90
2017-08-03T09:51:41.103Z,5.63
2017-08-03T09:54:09.298Z,5.80
2017-08-03T09:56:37.461Z,6.03
2017-08-03T09:59:05.629Z,6.13
2017-08-03T10:01:33.810Z,5.83
2017-08-03T10:04:01.961Z,6.33
2017-08-03T10:06:30.129Z,6.20
2017-08-03T10:08:58.310Z,6.40
2017-08-03T10:11:26.484Z,6.87
2017-08-03T10:13:54.651Z,6.87
2017-08-03T10:16:22.827Z,8.35
2017-08-03T10:18:50.986Z,10.05
2017-08-03T10:21:19.922Z,7.93
2017-08-03T10:23:48.125Z,9.93
2017-08-03T10:26:16.270Z,7.72
2017-08-03T10:28:44.433Z,10.63
2017-08-03T10:31:12.614Z,8.90
2017-08-03T10:33:40.842Z,8.43
2017-08-03T10:36:09.010Z,7.87
2017-08-03T10:38:37.198Z,7.65
2017-08-03T10:41:06.137Z,7.37
2017-08-03T10:43:34.309Z,9.48
2017-08-03T10:46:02.496Z,9.27
2017-08-03T10:48:30.657Z,8.65
2017-08-03T10:50:58.833Z,8.10
2017-08-03T10:53:27.029Z,7.50
2017-08-03T10:55:55.200Z,8.73
2017-08-03T10:58:23.345Z,6.47
2017-08-03T11:00:51.545Z,5.57
2017-08-03T11:03:19.697Z,8.00
2017-08-03T11:05:47.863Z,7.43
2017-08-03T11:08:16.035Z,6.43
2017-08-03T11:10:44.197Z,5.57
2017-08-03T11:13:12.368Z,6.43
2017-08-03T11:15:40.562Z,6.03
2017-08-03T11:18:08.732Z,6.07
2017-08-03T11:20:36.901Z,6.33
2017-08-03T11:23:05.095Z,6.23
2017-08-03T11:25:33.265Z,5.40
2017-08-03T11:28:01.416Z,6.53
2017-08-03T11:30:29.613Z,5.83
2017-08-03T11:32:57.782Z,4.47
2017-08-03T11:35:25.934Z,5.27
2017-08-03T11:37:54.128Z,14.33
2017-08-03T11:40:23.038Z,5.73
2017-08-03T11:42:51.202Z,4.67
2017-08-03T11:45:19.408Z,3.90
2017-08-03T11:47:47.562Z,7.10
2017-08-03T11:50:15.736Z,4.20
2017-08-03T11:52:43.911Z,3.80
2017-08-03T11:55:12.076Z,4.07
2017-08-03T11:57:40.244Z,4.13
2017-08-03T12:00:08.415Z,4.23
2017-08-03T12:02:36.581Z,4.10
2017-08-03T12:05:04.752Z,4.30
2017-08-03T12:07:33.704Z,4.03
2017-08-03T12:10:01.859Z,4.20
2017-08-03T12:12:30.034Z,4.07
2017-08-03T12:14:58.207Z,4.40
2017-08-03T12:17:26.371Z,4.37
2017-08-03T12:19:54.538Z,3.53
2017-08-03T12:22:22.730Z,4.00
2017-08-03T12:24:50.886Z,4.37
2017-08-03T12:27:19.043Z,3.60
2017-08-03T12:29:48.005Z,4.32
2017-08-03T12:32:16.159Z,3.15
2017-08-03T12:34:44.330Z,3.28
2017-08-03T12:37:12.537Z,3.53
2017-08-03T12:39:40.689Z,5.82
2017-08-03T12:42:08.838Z,2.95
2017-08-03T12:44:37.021Z,3.30
2017-08-03T12:47:05.173Z,4.47
2017-08-03T12:49:33.324Z,4.93
2017-08-03T12:52:02.269Z,4.37
2017-08-03T12:54:30.419Z,4.10
2017-08-03T12:56:58.588Z,5.60
2017-08-03T12:59:26.787Z,3.75
2017-08-03T13:01:54.963Z,4.30
2017-08-03T13:04:23.115Z,4.28
2017-08-03T13:06:51.317Z,3.72
2017-08-03T13:09:19.492Z,4.07
2017-08-03T13:11:47.658Z,3.22
2017-08-03T13:14:15.858Z,3.65
2017-08-03T13:16:44.031Z,3.50
2017-08-03T13:19:12.186Z,3.28
2017-08-03T13:21:40.361Z,3.58
2017-08-03T13:24:08.510Z,2.70
2017-08-03T13:26:36.678Z,3.85
2017-08-03T13:29:04.875Z,2.60
2017-08-03T13:31:33.039Z,2.50
2017-08-03T13:34:01.207Z,2.15
2017-08-03T13:36:29.386Z,7.18
2017-08-03T13:38:57.552Z,2.78
2017-08-03T13:41:25.718Z,4.15
2017-08-03T13:43:54.684Z,3.05
2017-08-03T13:46:22.834Z,2.78
2017-08-03T13:48:50.994Z,2.22
2017-08-03T13:51:19.179Z,2.85
2017-08-03T13:53:47.341Z,2.83
2017-08-03T13:56:15.489Z,5.22
2017-08-03T13:58:43.689Z,9.45
2017-08-03T14:01:11.835Z,2.65
2017-08-03T14:03:39.992Z,2.03
2017-08-03T14:06:08.938Z,2.50
2017-08-03T14:08:37.094Z,2.78
2017-08-03T14:11:05.262Z,1.92
2017-08-03T14:13:33.464Z,2.37
2017-08-03T14:16:01.632Z,2.35
2017-08-03T14:18:29.794Z,5.00
2017-08-03T14:20:57.988Z,1.98
2017-08-03T14:23:26.139Z,3.05
2017-08-03T14:25:54.298Z,3.15
2017-08-03T14:28:23.245Z,1.65
2017-08-03T14:30:51.401Z,1.98
2017-08-03T14:33:19.599Z,2.55
2017-08-03T14:35:47.775Z,3.17
2017-08-03T14:38:16.700Z,2.10
2017-08-03T14:40:45.611Z,3.20
2017-08-03T14:43:13.817Z,3.00
2017-08-03T14:45:41.989Z,3.47
2017-08-03T14:48:10.135Z,4.75
2017-08-03T14:50:38.318Z,2.80
2017-08-03T14:53:06.513Z,2.60
2017-08-03T14:55:34.677Z,4.53
2017-08-03T14:58:02.864Z,2.53
2017-08-03T15:00:31.007Z,3.97
2017-08-03T15:02:59.169Z,2.60
2017-08-03T15:05:28.114Z,3.15
2017-08-03T15:07:56.296Z,2.00
2017-08-03T15:10:24.480Z,2.35
2017-08-03T15:12:52.651Z,2.50
2017-08-03T15:15:20.795Z,3.05
2017-08-03T15:17:49.711Z,2.90
2017-08-03T15:20:17.901Z,2.20
2017-08-03T15:22:46.051Z,2.70
2017-08-03T15:25:14.238Z,2.95
2017-08-03T15:27:42.422Z,3.50
2017-08-03T15:30:10.568Z,4.50
2017-08-03T15:32:39.479Z,1.98
2017-08-03T15:35:07.655Z,3.53
2017-08-03T15:37:35.810Z,2.20
2017-08-03T15:40:04.718Z,5.05
2017-08-03T15:42:32.889Z,6.25
2017-08-03T15:45:01.050Z,3.45
2017-08-03T15:47:29.969Z,5.47
2017-08-03T15:49:58.164Z,3.30
2017-08-03T15:52:26.310Z,4.00
2017-08-03T15:54:54.474Z,2.60
2017-08-03T15:57:22.649Z,4.43
2017-08-03T15:59:50.791Z,4.50
2017-08-03T16:02:18.952Z,7.47
2017-08-03T16:04:47.139Z,8.05
2017-08-03T16:07:15.286Z,4.90
2017-08-03T16:09:43.437Z,2.78
2017-08-03T16:12:11.647Z,5.15
2017-08-03T16:14:39.798Z,4.57
2017-08-03T16:17:07.945Z,3.55
2017-08-03T16:19:36.123Z,7.05
2017-08-03T16:22:04.286Z,5.93
2017-08-03T16:24:33.202Z,12.63
2017-08-03T16:27:01.394Z,4.65
2017-08-03T16:29:29.564Z,5.90
2017-08-03T16:31:57.731Z,7.37
2017-08-03T16:34:25.915Z,7.90
2017-08-03T16:36:54.080Z,7.40
2017-08-03T16:39:22.246Z,5.15
2017-08-03T16:41:50.417Z,9.23
2017-08-03T16:44:18.586Z,4.20
2017-08-03T16:46:46.730Z,9.05
2017-08-03T16:49:14.909Z,4.93
2017-08-03T16:51:43.842Z,6.87
2017-08-03T16:54:12.010Z,9.70
2017-08-03T16:56:40.945Z,5.72
2017-08-03T16:59:09.112Z,4.32
2017-08-03T17:01:37.258Z,5.87
2017-08-03T17:04:05.465Z,8.00
2017-08-03T17:06:33.612Z,6.55
2017-08-03T17:09:01.766Z,8.18
2017-08-03T17:11:29.981Z,8.05
2017-08-03T17:13:58.145Z,6.57
2017-08-03T17:16:26.312Z,7.72
2017-08-03T17:18:54.504Z,8.48
2017-08-03T17:21:22.646Z,7.15
2017-08-03T17:23:50.786Z,4.93
2017-08-03T17:26:19.722Z,6.28
2017-08-03T17:28:47.874Z,8.63
2017-08-03T17:31:16.042Z,11.32
2017-08-03T17:33:44.996Z,6.18
2017-08-03T17:36:13.147Z,5.60
2017-08-03T17:38:41.294Z,7.93
2017-08-03T17:41:09.471Z,8.90
2017-08-03T17:43:37.618Z,4.82
2017-08-03T17:46:06.537Z,4.90
2017-08-03T17:48:34.728Z,7.43
2017-08-03T17:51:02.881Z,7.12
2017-08-03T17:53:31.049Z,8.70
2017-08-03T17:55:59.223Z,5.62
2017-08-03T17:58:28.153Z,6.57
2017-08-03T18:00:56.321Z,7.35
2017-08-03T18:03:24.515Z,7.05
2017-08-03T18:05:52.662Z,8.00
2017-08-03T18:08:20.833Z,10.30
2017-08-03T18:10:49.005Z,5.60
2017-08-03T18:13:17.176Z,6.53
2017-08-03T18:15:45.342Z,7.78
2017-08-03T18:18:13.534Z,9.25
2017-08-03T18:20:41.682Z,7.03
2017-08-03T18:23:10.599Z,7.15
2017-08-03T18:25:38.789Z,6.97
2017-08-03T18:28:06.939Z,10.60
2017-08-03T18:30:35.092Z,11.40
2017-08-03T18:33:04.038Z,13.23
2017-08-03T18:35:32.205Z,9.38
2017-08-03T18:38:00.356Z,9.80
2017-08-03T18:40:28.541Z,8.18
2017-08-03T18:42:56.683Z,4.20
2017-08-03T18:45:25.596Z,6.15
2017-08-03T18:47:53.771Z,8.68
2017-08-03T18:50:21.915Z,7.12
2017-08-03T18:52:50.850Z,7.62
2017-08-03T18:55:19.026Z,8.10
2017-08-03T18:57:47.198Z,4.70
2017-08-03T19:00:15.345Z,7.25
2017-08-03T19:02:44.289Z,11.75
2017-08-03T19:05:12.452Z,4.68
2017-08-03T19:07:40.602Z,6.43
2017-08-03T19:10:08.777Z,3.70
2017-08-03T19:12:36.924Z,8.35
2017-08-03T19:15:05.837Z,4.70
2017-08-03T19:17:34.029Z,4.10
2017-08-03T19:20:02.183Z,6.43
2017-08-03T19:22:30.779Z,4.47
2017-08-03T19:24:58.952Z,4.65
2017-08-03T19:27:27.098Z,6.40
2017-08-03T19:29:56.024Z,6.30
2017-08-03T19:32:24.214Z,5.45
2017-08-03T19:34:52.389Z,8.75
2017-08-03T19:37:20.558Z,9.85
2017-08-03T19:39:48.727Z,8.63
2017-08-03T19:42:16.893Z,5.37
2017-08-03T19:44:45.039Z,9.35
2017-08-03T19:47:14.002Z,7.57
2017-08-03T19:49:42.166Z,6.28
2017-08-03T19:52:10.312Z,6.20
2017-08-03T19:54:38.482Z,9.07
2017-08-03T19:57:06.639Z,9.35
2017-08-03T19:59:34.805Z,6.82
2017-08-03T20:02:03.749Z,6.62
2017-08-03T20:04:31.912Z,7.85
2017-08-03T20:07:26.747Z,5.50
2017-08-03T20:10:00.806Z,7.37
2017-08-03T20:12:29.005Z,12.80
2017-08-03T20:14:57.173Z,6.97
2017-08-03T20:17:25.337Z,10.43
2017-08-03T20:19:53.528Z,5.00
2017-08-03T20:22:21.696Z,6.00
2017-08-03T20:24:49.877Z,11.70
2017-08-03T20:27:18.072Z,8.02
2017-08-03T20:29:46.224Z,7.65
2017-08-03T20:32:14.374Z,8.00
2017-08-03T20:37:15.937Z,10.48
2017-08-03T20:39:44.138Z,10.65
2017-08-03T20:42:12.277Z,9.55
2017-08-03T20:44:41.191Z,8.85
2017-08-03T20:47:09.380Z,11.80
2017-08-03T20:49:37.527Z,5.57
2017-08-03T20:52:05.694Z,4.90
2017-08-03T20:54:34.653Z,8.77
2017-08-03T20:57:02.820Z,11.65
2017-08-03T20:59:30.966Z,8.40
2017-08-03T21:01:59.164Z,7.10
2017-08-03T21:04:27.329Z,7.97
2017-08-03T21:06:55.497Z,5.80
2017-08-03T21:09:23.699Z,13.60
2017-08-03T21:11:51.864Z,8.30
2017-08-03T21:14:20.029Z,12.40
2017-08-03T21:16:48.221Z,6.50
2017-08-03T21:19:16.362Z,9.85
2017-08-03T21:21:44.511Z,8.10
2017-08-03T21:24:13.506Z,6.57
2017-08-03T21:26:41.677Z,12.48
2017-08-03T21:29:09.826Z,7.78
2017-08-03T21:31:37.995Z,6.07
2017-08-03T21:34:06.161Z,8.45
2017-08-03T21:36:34.313Z,6.22
2017-08-03T21:39:02.485Z,7.07
2017-08-03T21:41:30.659Z,5.95
2017-08-03T21:43:58.825Z,8.40
2017-08-03T21:46:27.025Z,10.10
2017-08-03T21:48:55.174Z,11.23
2017-08-03T21:51:23.323Z,7.05
2017-08-03T21:53:52.277Z,5.95
2017-08-03T21:56:20.423Z,4.47
2017-08-03T21:58:48.593Z,6.15
2017-08-03T22:01:16.768Z,6.53
2017-08-03T22:03:44.911Z,6.32
2017-08-03T22:06:13.821Z,7.12
2017-08-03T22:08:41.990Z,7.28
2017-08-03T22:11:10.153Z,4.78
2017-08-03T22:13:39.069Z,6.65
2017-08-03T22:16:07.269Z,5.97
2017-08-03T22:18:35.440Z,9.40
2017-08-03T22:21:03.609Z,16.25
2017-08-03T22:23:32.194Z,5.07
2017-08-03T22:26:00.341Z,6.60
2017-08-03T22:28:28.481Z,9.68
2017-08-03T22:30:56.658Z,8.35
2017-08-03T22:33:25.571Z,8.82
2017-08-03T22:35:53.737Z,8.32
2017-08-03T22:38:21.906Z,8.15
2017-08-03T22:40:50.847Z,11.73
2017-08-03T22:43:19.008Z,5.43
2017-08-03T22:45:47.209Z,7.30
2017-08-03T22:48:15.354Z,6.95
2017-08-03T22:50:43.494Z,8.85
2017-08-03T22:53:12.746Z,4.15
2017-08-03T22:55:40.890Z,9.57
2017-08-03T22:58:09.052Z,5.82
2017-08-03T23:00:38.021Z,9.95
2017-08-03T23:03:06.229Z,8.23
2017-08-03T23:05:34.383Z,12.65
2017-08-03T23:08:03.339Z,8.25
2017-08-03T23:10:31.481Z,6.40
2017-08-03T23:12:59.643Z,8.20
2017-08-03T23:15:27.815Z,7.65
2017-08-03T23:17:56.741Z,7.85
2017-08-03T23:20:24.895Z,7.32
2017-08-03T23:22:53.091Z,11.52
2017-08-03T23:25:21.242Z,8.90
2017-08-03T23:27:49.410Z,12.80
2017-08-03T23:30:17.614Z,10.65
2017-08-03T23:32:46.482Z,6.53
2017-08-03T23:35:14.625Z,9.40
2017-08-03T23:37:42.820Z,10.82
2017-08-03T23:40:10.988Z,6.93
2017-08-03T23:42:39.922Z,10.07
2017-08-03T23:45:08.116Z,11.15
2017-08-03T23:47:36.278Z,5.57
2017-08-03T23:50:04.448Z,8.18
2017-08-03T23:52:32.626Z,12.27
2017-08-03T23:55:00.770Z,5.35
2017-08-03T23:57:28.935Z,9.93
2017-08-03T23:59:57.124Z,6.82
